Portada
METAR-TAF:

METAR-TAF

Aeroports :

Tak, Tailàndia

latitud: 16-53N, longitud: 099-09E, altitud: 121 m

METAR: manca

Hora: 01:12 (18:12 UTC)

Pronòstic

L'informe es va fer fa 1 hora i 12 minuts, a les 17:00 UTC
Pronòstic vàlid del 22 a les 18 UTC al 23 a les 18 UTC
Vent 5 kt del Oest
Visibilitat: 6000 m
Escasses núvols a una alçada de 3000 ft

TAF: VTPT 221700Z 2218/2318 26005KT 6000 FEW030

Observacions i pronòstics meteorològics de més de 4000 aeroports (METAR i TAF).

Les estacions disponibles són els punts grocs i vermells al mapa.

Posi el ratolí al punt desitjat per veure el nom de l'estació.

Feu clic per veure les observacions i els pronòstics meteorològics.

Per canviar el mapa: feu clic els botons verds amb una creu de color negre per apropar; al botó verd amb un guió per allunyar la imatge; o en les fletxes verdes per a mapes adjacents.


METAR-TAF: